Main page
METAR-TAF:

METAR-TAF

Airports :

Vigo–Peinador Airport

Vigo, Spain

latitude: 42-13N, longitude: 008-38W, elevation: 264 m

Current weather observation

The report was made 31 minutes ago, at 23:00 UTC
Wind 4 kt from the North/Northeast, varying between North/Northwest and East
Temperature 20°C
Humidity 83%
Pressure 1020 hPa
Visibility 10 km or more
no clouds below 1500 m and no cumulonimbus

METAR: LEVX 052300Z 03004KT 340V080 CAVOK 20/17 Q1020 NOSIG

Time: 01:31 (23:31 UTC)

Forecast

The report was made 6 hours and 31 minutes ago, at 17:00 UTC
Forecast valid from 05 at 18 UTC to 06 at 18 UTC
Wind 9 kt from the North
Visibility 10 km or more
no clouds below 1500 m and no cumulonimbus

TAF: LEVX 051700Z 0518/0618 36009KT CAVOK TX33/0614Z TN18/0605Z

Weather observations and forecasts of more than 4000 airports (METAR and TAF reports).

The available stations are represented by yellow and red dots on the map.

Hover mouse over dot to see the name of the station.

Then click to see weather observations and forecasts.

To change the map : click on the green buttons with a black cross to zoom in, on the green button with a dash to zoom out, or on the green arrows for adjacent maps.


METAR-TAF: